createdAt,value
2023-04-24T00:01:02.116Z,6.20
2023-04-24T00:03:29.894Z,6.20
2023-04-24T00:06:00.469Z,6.20
2023-04-24T00:08:27.732Z,6.30
2023-04-24T00:10:57.006Z,6.10
2023-04-24T00:13:23.900Z,6.20
2023-04-24T00:15:53.499Z,6.20
2023-04-24T00:18:20.543Z,6.20
2023-04-24T00:20:47.916Z,6.20
2023-04-24T00:23:14.891Z,6.30
2023-04-24T00:25:43.029Z,6.30
2023-04-24T00:28:10.129Z,6.30
2023-04-24T00:30:37.436Z,6.40
2023-04-24T00:33:08.813Z,6.40
2023-04-24T00:35:35.924Z,6.60
2023-04-24T00:38:02.910Z,6.50
2023-04-24T00:40:30.676Z,6.80
2023-04-24T00:42:58.799Z,6.80
2023-04-24T00:45:26.100Z,6.90
2023-04-24T00:47:55.323Z,6.90
2023-04-24T00:50:24.455Z,6.90
2023-04-24T00:52:52.077Z,6.90
2023-04-24T00:55:22.281Z,7.00
2023-04-24T00:57:50.995Z,7.00
2023-04-24T01:00:18.497Z,7.00
2023-04-24T01:02:48.594Z,7.00
2023-04-24T01:05:21.318Z,7.10
2023-04-24T01:07:51.212Z,7.10
2023-04-24T01:10:19.221Z,7.10
2023-04-24T01:12:48.899Z,7.10
2023-04-24T01:15:16.732Z,7.10
2023-04-24T01:17:45.533Z,7.10
2023-04-24T01:20:15.433Z,7.20
2023-04-24T01:22:45.651Z,7.20
2023-04-24T01:25:18.229Z,7.20
2023-04-24T01:27:46.964Z,7.30
2023-04-24T01:30:16.274Z,7.20
2023-04-24T01:32:46.706Z,7.30
2023-04-24T01:35:13.886Z,7.30
2023-04-24T01:37:41.218Z,7.30
2023-04-24T01:40:12.215Z,7.30
2023-04-24T01:42:42.672Z,7.30
2023-04-24T01:45:14.453Z,7.30
2023-04-24T01:47:42.666Z,7.40
2023-04-24T01:50:11.356Z,7.30
2023-04-24T01:52:42.999Z,7.40
2023-04-24T01:55:14.335Z,7.40
2023-04-24T01:57:44.148Z,7.30
2023-04-24T02:00:13.533Z,7.50
2023-04-24T02:02:47.334Z,7.40
2023-04-24T02:05:16.545Z,7.40
2023-04-24T02:07:44.384Z,7.40
2023-04-24T02:10:11.937Z,7.50
2023-04-24T02:12:49.351Z,7.50
2023-04-24T02:15:16.682Z,7.50
2023-04-24T02:17:44.305Z,7.60
2023-04-24T02:20:12.766Z,7.50
2023-04-24T02:22:42.653Z,7.50
2023-04-24T02:25:12.798Z,7.50
2023-04-24T02:27:42.745Z,7.30
2023-04-24T02:30:12.702Z,7.30
2023-04-24T02:32:40.231Z,7.20
2023-04-24T02:35:07.831Z,7.10
2023-04-24T02:37:34.968Z,7.10
2023-04-24T02:40:02.059Z,7.00
2023-04-24T02:42:31.933Z,7.00
2023-04-24T02:44:58.725Z,6.90
2023-04-24T02:47:29.303Z,6.80
2023-04-24T02:49:56.617Z,6.80
2023-04-24T02:52:23.829Z,6.80
2023-04-24T02:54:51.924Z,6.80
2023-04-24T02:57:19.076Z,6.70
2023-04-24T02:59:48.508Z,6.70
2023-04-24T03:02:16.490Z,6.60
2023-04-24T03:04:44.398Z,6.60
2023-04-24T03:07:11.312Z,6.50
2023-04-24T03:09:38.090Z,6.50
2023-04-24T03:12:07.613Z,6.60
2023-04-24T03:14:36.929Z,6.50
2023-04-24T03:17:04.365Z,6.40
2023-04-24T03:19:33.534Z,6.50
2023-04-24T03:22:06.261Z,6.40
2023-04-24T03:24:34.586Z,6.40
2023-04-24T03:27:05.200Z,6.30
2023-04-24T03:29:48.579Z,6.40
2023-04-24T03:32:18.230Z,6.30
2023-04-24T03:34:48.553Z,6.30
2023-04-24T03:37:21.528Z,6.20
2023-04-24T03:40:04.693Z,6.30
2023-04-24T03:42:31.511Z,6.30
2023-04-24T03:44:59.940Z,6.30
2023-04-24T03:47:32.177Z,6.20
2023-04-24T03:50:02.052Z,6.30
2023-04-24T03:52:32.106Z,6.30
2023-04-24T03:55:01.597Z,6.30
2023-04-24T03:57:30.731Z,6.20
2023-04-24T04:00:08.173Z,6.10
2023-04-24T04:02:41.812Z,6.10
2023-04-24T04:05:15.933Z,6.00
2023-04-24T04:07:42.811Z,5.80
2023-04-24T04:10:14.413Z,5.80
2023-04-24T04:12:41.277Z,5.70
2023-04-24T04:15:08.746Z,5.70
2023-04-24T04:17:39.610Z,5.50
2023-04-24T04:20:11.176Z,5.50
2023-04-24T04:22:39.843Z,5.40
2023-04-24T04:25:10.207Z,5.30
2023-04-24T04:27:37.596Z,5.10
2023-04-24T04:30:10.953Z,5.10
2023-04-24T04:33:00.526Z,5.10
2023-04-24T04:35:27.968Z,4.90
2023-04-24T04:38:00.724Z,4.90
2023-04-24T04:40:37.484Z,4.70
2023-04-24T04:43:07.678Z,4.70
2023-04-24T04:45:44.649Z,4.60
2023-04-24T04:48:23.754Z,4.60
2023-04-24T04:50:51.187Z,4.70
2023-04-24T04:53:18.702Z,4.50
2023-04-24T04:55:47.542Z,4.60
2023-04-24T04:58:18.639Z,4.60
2023-04-24T05:00:47.486Z,4.50
2023-04-24T05:03:24.510Z,4.60
2023-04-24T05:05:58.588Z,4.40
2023-04-24T05:08:27.530Z,4.40
2023-04-24T05:10:56.708Z,4.50
2023-04-24T05:13:38.155Z,4.60
2023-04-24T05:16:08.953Z,4.60
2023-04-24T05:18:38.983Z,4.70
2023-04-24T05:21:08.014Z,4.70
2023-04-24T05:23:35.999Z,4.80
2023-04-24T05:26:05.091Z,4.80
2023-04-24T05:28:34.690Z,5.00
2023-04-24T05:31:21.537Z,5.10
2023-04-24T05:33:52.018Z,5.10
2023-04-24T05:36:18.957Z,5.20
2023-04-24T05:38:46.665Z,5.30
2023-04-24T05:41:15.428Z,5.40
2023-04-24T05:43:44.538Z,5.40
2023-04-24T05:46:27.667Z,5.60
2023-04-24T05:48:58.360Z,5.70
2023-04-24T05:51:27.185Z,5.80
2023-04-24T05:53:55.779Z,6.00
2023-04-24T05:56:23.627Z,6.20
2023-04-24T05:58:50.984Z,6.30
2023-04-24T06:01:19.329Z,6.50
2023-04-24T06:03:51.879Z,6.60
2023-04-24T06:06:20.322Z,6.80
2023-04-24T06:08:47.260Z,6.90
2023-04-24T06:11:18.306Z,7.00
2023-04-24T06:13:45.567Z,7.10
2023-04-24T06:16:31.890Z,7.20
2023-04-24T06:19:04.534Z,7.30
2023-04-24T06:21:33.462Z,7.20
2023-04-24T06:24:05.009Z,7.10
2023-04-24T06:26:32.542Z,7.00
2023-04-24T06:29:01.444Z,7.00
2023-04-24T06:31:28.473Z,7.00
2023-04-24T06:33:56.634Z,7.10
2023-04-24T06:36:24.655Z,6.90
2023-04-24T06:38:51.544Z,7.10
2023-04-24T06:41:18.720Z,7.20
2023-04-24T06:43:45.954Z,7.40
2023-04-24T06:46:13.453Z,7.50
2023-04-24T06:48:43.548Z,7.50
2023-04-24T06:51:11.285Z,7.60
2023-04-24T06:53:38.334Z,7.80
2023-04-24T06:56:05.691Z,7.80
2023-04-24T06:58:33.040Z,7.80
2023-04-24T07:01:02.412Z,7.90
2023-04-24T07:03:34.194Z,8.10
2023-04-24T07:06:01.682Z,8.10
2023-04-24T07:08:29.415Z,8.20
2023-04-24T07:10:57.144Z,8.50
2023-04-24T07:13:24.532Z,8.60
2023-04-24T07:15:56.372Z,9.00
2023-04-24T07:18:23.628Z,9.50
2023-04-24T07:20:56.274Z,10.20
2023-04-24T07:23:23.116Z,10.30
2023-04-24T07:25:50.139Z,10.70
2023-04-24T07:28:19.419Z,11.00
2023-04-24T07:30:48.743Z,11.10
2023-04-24T07:33:16.021Z,10.90
2023-04-24T07:35:45.951Z,10.90
2023-04-24T07:38:13.014Z,11.00
2023-04-24T07:40:40.211Z,11.10
2023-04-24T07:43:07.346Z,11.10
2023-04-24T07:45:38.882Z,11.10
2023-04-24T07:48:06.352Z,11.10
2023-04-24T07:50:33.925Z,10.90
2023-04-24T07:53:01.431Z,11.00
2023-04-24T07:55:33.547Z,11.20
2023-04-24T07:58:04.506Z,11.30
2023-04-24T08:00:34.119Z,11.30
2023-04-24T08:03:03.625Z,11.30
2023-04-24T08:05:30.753Z,11.40
2023-04-24T08:07:57.730Z,11.70
2023-04-24T08:10:27.593Z,11.60
2023-04-24T08:12:57.430Z,11.50
2023-04-24T08:15:24.387Z,11.30
2023-04-24T08:17:51.725Z,11.40
2023-04-24T08:20:18.911Z,11.30
2023-04-24T08:22:48.876Z,11.40
2023-04-24T08:25:15.916Z,11.30
2023-04-24T08:27:42.892Z,11.40
2023-04-24T08:30:12.646Z,11.60
2023-04-24T08:32:39.502Z,11.90
2023-04-24T08:35:12.374Z,12.00
2023-04-24T08:37:42.642Z,12.00
2023-04-24T08:40:17.867Z,11.90
2023-04-24T08:42:45.938Z,11.70
2023-04-24T08:45:14.260Z,11.80
2023-04-24T08:47:45.392Z,11.90
2023-04-24T08:50:14.115Z,11.90
2023-04-24T08:52:43.191Z,11.90
2023-04-24T08:55:12.916Z,11.40
2023-04-24T08:57:41.716Z,11.00
2023-04-24T09:00:11.555Z,11.00
2023-04-24T09:02:49.337Z,10.80
2023-04-24T09:05:18.865Z,10.80
2023-04-24T09:07:57.809Z,10.90
2023-04-24T09:10:28.832Z,11.00
2023-04-24T09:13:03.197Z,11.10
2023-04-24T09:15:31.051Z,10.90
2023-04-24T09:18:01.783Z,11.10
2023-04-24T09:20:31.924Z,11.10
2023-04-24T09:23:02.227Z,11.20
2023-04-24T09:25:37.223Z,11.30
2023-04-24T09:28:07.835Z,11.60
2023-04-24T09:30:35.001Z,11.60
2023-04-24T09:33:15.024Z,11.70
2023-04-24T09:35:44.356Z,11.80
2023-04-24T09:38:11.885Z,12.00
2023-04-24T09:40:41.917Z,11.90
2023-04-24T09:43:14.738Z,11.80
2023-04-24T09:45:41.909Z,12.00
2023-04-24T09:48:11.453Z,12.00
2023-04-24T09:50:42.016Z,12.10
2023-04-24T09:53:12.193Z,11.80
2023-04-24T09:55:49.058Z,11.40
2023-04-24T09:58:18.300Z,11.10
2023-04-24T10:00:47.531Z,10.70
2023-04-24T10:03:21.137Z,10.70
2023-04-24T10:05:48.779Z,10.60
2023-04-24T10:08:16.264Z,11.00
2023-04-24T10:10:45.459Z,11.60
2023-04-24T10:13:14.995Z,11.80
2023-04-24T10:15:43.622Z,12.10
2023-04-24T10:18:14.332Z,12.60
2023-04-24T10:20:42.086Z,13.10
2023-04-24T10:23:14.525Z,13.60
2023-04-24T10:25:42.012Z,14.00
2023-04-24T10:28:11.355Z,14.60
2023-04-24T10:30:39.040Z,14.70
2023-04-24T10:33:08.726Z,14.70
2023-04-24T10:35:42.873Z,15.10
2023-04-24T10:38:13.804Z,15.20
2023-04-24T10:40:44.980Z,15.60
2023-04-24T10:43:13.963Z,15.60
2023-04-24T10:46:07.214Z,15.50
2023-04-24T10:48:43.424Z,15.20
2023-04-24T10:51:16.082Z,14.60
2023-04-24T10:53:43.012Z,14.50
2023-04-24T10:56:11.294Z,14.40
2023-04-24T10:58:46.243Z,14.00
2023-04-24T11:01:31.714Z,13.30
2023-04-24T11:04:04.118Z,12.60
2023-04-24T11:06:37.411Z,12.10
2023-04-24T11:09:07.883Z,11.40
2023-04-24T11:11:41.715Z,11.00
2023-04-24T11:14:11.266Z,10.40
2023-04-24T11:17:08.366Z,10.00
2023-04-24T11:19:35.308Z,9.30
2023-04-24T11:22:05.068Z,8.80
2023-04-24T11:24:40.306Z,8.50
2023-04-24T11:27:25.600Z,8.50
2023-04-24T11:29:59.043Z,8.70
2023-04-24T11:32:26.142Z,9.20
2023-04-24T11:34:57.690Z,9.70
2023-04-24T11:37:27.906Z,10.30
2023-04-24T11:39:57.946Z,11.20
2023-04-24T11:42:28.123Z,11.50
2023-04-24T11:45:01.031Z,11.60
2023-04-24T11:47:34.563Z,11.60
2023-04-24T11:50:02.904Z,12.40
2023-04-24T11:52:31.285Z,13.10
2023-04-24T11:55:05.077Z,13.10
2023-04-24T11:57:35.785Z,13.10
2023-04-24T12:00:09.987Z,13.00
2023-04-24T12:02:40.355Z,13.00
2023-04-24T12:05:08.530Z,13.00
2023-04-24T12:07:46.019Z,13.00
2023-04-24T12:10:13.705Z,13.00
2023-04-24T12:12:43.138Z,12.80
2023-04-24T12:15:10.582Z,12.70
2023-04-24T12:17:45.359Z,13.40
2023-04-24T12:20:16.033Z,14.00
2023-04-24T12:22:49.317Z,13.60
2023-04-24T12:25:21.406Z,13.20
2023-04-24T12:27:53.480Z,12.90
2023-04-24T12:30:24.679Z,12.60
2023-04-24T12:32:59.860Z,12.50
2023-04-24T12:35:29.714Z,12.60
2023-04-24T12:37:56.841Z,12.80
2023-04-24T12:40:27.103Z,12.80
2023-04-24T12:42:58.120Z,12.20
2023-04-24T12:45:30.315Z,10.90
2023-04-24T12:48:09.559Z,10.10
2023-04-24T12:50:47.694Z,9.10
2023-04-24T12:53:16.532Z,9.00
2023-04-24T12:55:44.072Z,9.10
2023-04-24T12:58:11.207Z,8.60
2023-04-24T13:00:39.636Z,8.30
2023-04-24T13:03:11.747Z,8.50
2023-04-24T13:05:40.824Z,8.70
2023-04-24T13:08:07.871Z,9.40
2023-04-24T13:10:35.740Z,10.30
2023-04-24T13:13:03.002Z,11.20
2023-04-24T13:15:30.110Z,11.80
2023-04-24T13:18:00.229Z,12.00
2023-04-24T13:20:29.290Z,11.80
2023-04-24T13:22:56.503Z,11.80
2023-04-24T13:25:26.045Z,11.80
2023-04-24T13:27:53.289Z,11.50
2023-04-24T13:30:20.563Z,11.90
2023-04-24T13:32:48.929Z,11.90
2023-04-24T13:35:16.042Z,11.90
2023-04-24T13:37:43.148Z,11.70
2023-04-24T13:40:13.313Z,11.40
2023-04-24T13:42:42.686Z,11.60
2023-04-24T13:45:23.896Z,11.60
2023-04-24T13:47:52.757Z,11.30
2023-04-24T13:50:20.361Z,11.20
2023-04-24T13:52:47.190Z,11.40
2023-04-24T13:55:14.583Z,11.60
2023-04-24T13:57:42.533Z,11.70
2023-04-24T14:00:12.920Z,11.90
2023-04-24T14:02:39.894Z,11.90
2023-04-24T14:05:07.788Z,11.80
2023-04-24T14:07:35.135Z,11.40
2023-04-24T14:10:04.535Z,11.00
2023-04-24T14:12:31.803Z,10.70
2023-04-24T14:14:58.837Z,10.40
2023-04-24T14:17:25.862Z,10.40
2023-04-24T14:19:57.550Z,10.70
2023-04-24T14:22:24.702Z,10.80
2023-04-24T14:24:51.497Z,11.00
2023-04-24T14:27:21.595Z,11.30
2023-04-24T14:29:55.939Z,11.50
2023-04-24T14:32:24.964Z,11.70
2023-04-24T14:34:55.052Z,11.90
2023-04-24T14:37:22.007Z,11.80
2023-04-24T14:40:06.151Z,11.90
2023-04-24T14:42:38.227Z,11.50
2023-04-24T14:45:06.010Z,11.30
2023-04-24T14:47:33.329Z,11.10
2023-04-24T14:50:00.796Z,11.20
2023-04-24T14:52:30.086Z,11.30
2023-04-24T14:54:57.390Z,11.20
2023-04-24T14:57:24.662Z,11.10
2023-04-24T14:59:52.162Z,10.90
2023-04-24T15:02:21.774Z,10.80
2023-04-24T15:04:49.349Z,10.90
2023-04-24T15:07:18.853Z,11.00
2023-04-24T15:09:48.500Z,11.30
2023-04-24T15:12:15.727Z,11.60
2023-04-24T15:14:42.833Z,11.60
2023-04-24T15:17:12.537Z,12.00
2023-04-24T15:19:39.717Z,12.10
2023-04-24T15:22:06.903Z,12.10
2023-04-24T15:24:36.345Z,12.30
2023-04-24T15:27:06.894Z,12.40
2023-04-24T15:29:34.170Z,12.50
2023-04-24T15:32:03.949Z,12.60
2023-04-24T15:34:33.210Z,12.40
2023-04-24T15:37:01.548Z,12.30
2023-04-24T15:39:28.547Z,12.00
2023-04-24T15:41:56.533Z,11.80
2023-04-24T15:44:24.588Z,11.70
2023-04-24T15:46:52.564Z,11.60
2023-04-24T15:49:23.410Z,11.40
2023-04-24T15:51:53.694Z,11.40
2023-04-24T15:54:26.301Z,11.20
2023-04-24T15:56:54.137Z,11.20
2023-04-24T15:59:23.174Z,11.20
2023-04-24T16:01:51.379Z,11.50
2023-04-24T16:04:20.003Z,11.50
2023-04-24T16:06:49.685Z,11.60
2023-04-24T16:09:18.866Z,11.70
2023-04-24T16:11:46.112Z,11.50
2023-04-24T16:14:15.548Z,11.40
2023-04-24T16:16:42.624Z,11.20
2023-04-24T16:19:09.884Z,10.80
2023-04-24T16:21:39.327Z,10.70
2023-04-24T16:24:08.976Z,10.70
2023-04-24T16:26:36.241Z,10.80
2023-04-24T16:29:03.504Z,10.60
2023-04-24T16:31:36.052Z,10.60
2023-04-24T16:34:03.170Z,10.80
2023-04-24T16:36:30.792Z,10.40
2023-04-24T16:38:57.812Z,10.10
2023-04-24T16:41:24.834Z,10.10
2023-04-24T16:43:52.004Z,10.20
2023-04-24T16:46:20.013Z,10.10
2023-04-24T16:48:47.491Z,10.10
2023-04-24T16:51:15.113Z,9.90
2023-04-24T16:53:44.703Z,9.70
2023-04-24T16:56:12.312Z,9.60
2023-04-24T16:58:39.577Z,9.50
2023-04-24T17:01:09.213Z,9.30
2023-04-24T17:03:36.353Z,9.20
2023-04-24T17:06:08.048Z,9.20
2023-04-24T17:08:35.251Z,8.90
2023-04-24T17:11:03.904Z,8.60
2023-04-24T17:13:30.702Z,8.40
2023-04-24T17:16:00.965Z,8.50
2023-04-24T17:18:28.985Z,8.50
2023-04-24T17:20:56.075Z,8.40
2023-04-24T17:23:23.127Z,8.40
2023-04-24T17:25:50.377Z,8.40
2023-04-24T17:28:37.549Z,8.30
2023-04-24T17:31:05.135Z,8.10
2023-04-24T17:33:34.897Z,8.00
2023-04-24T17:36:02.346Z,7.80
2023-04-24T17:38:29.878Z,7.70
2023-04-24T17:40:58.673Z,8.00
2023-04-24T17:43:26.358Z,8.60
2023-04-24T17:45:56.747Z,8.50
2023-04-24T17:48:24.009Z,8.30
2023-04-24T17:50:52.377Z,7.80
2023-04-24T17:53:21.704Z,7.60
2023-04-24T17:55:50.816Z,7.20
2023-04-24T17:58:19.878Z,7.00
2023-04-24T18:00:47.358Z,6.90
2023-04-24T18:03:15.226Z,6.70
2023-04-24T18:05:43.840Z,6.40
2023-04-24T18:08:10.645Z,6.40
2023-04-24T18:10:45.091Z,6.20
2023-04-24T18:13:12.914Z,6.10
2023-04-24T18:15:43.266Z,6.00
2023-04-24T18:18:11.867Z,5.90
2023-04-24T18:20:39.131Z,5.80
2023-04-24T18:23:06.030Z,5.80
2023-04-24T18:25:33.226Z,5.80
2023-04-24T18:28:00.121Z,5.80
2023-04-24T18:30:31.134Z,5.90
2023-04-24T18:32:59.285Z,6.00
2023-04-24T18:35:26.886Z,6.20
2023-04-24T18:37:54.099Z,6.10
2023-04-24T18:40:23.096Z,6.10
2023-04-24T18:42:52.760Z,6.20
2023-04-24T18:45:19.877Z,6.30
2023-04-24T18:47:47.376Z,6.40
2023-04-24T18:50:19.756Z,6.20
2023-04-24T18:52:46.979Z,6.30
2023-04-24T18:55:14.237Z,6.30
2023-04-24T18:57:41.091Z,6.30
2023-04-24T19:00:08.759Z,6.30
2023-04-24T19:02:36.999Z,6.30
2023-04-24T19:05:04.341Z,6.20
2023-04-24T19:07:33.739Z,6.20
2023-04-24T19:10:02.986Z,6.30
2023-04-24T19:12:30.191Z,6.30
2023-04-24T19:14:58.206Z,6.30
2023-04-24T19:17:25.666Z,6.30
2023-04-24T19:19:55.191Z,6.20
2023-04-24T19:22:22.131Z,6.20
2023-04-24T19:24:49.418Z,6.20
2023-04-24T19:27:16.294Z,6.10
2023-04-24T19:29:46.185Z,6.20
2023-04-24T19:32:13.423Z,6.10
2023-04-24T19:34:41.023Z,6.00
2023-04-24T19:37:08.532Z,6.00
2023-04-24T19:39:35.780Z,5.90
2023-04-24T19:42:05.692Z,5.80
2023-04-24T19:44:34.980Z,5.80
2023-04-24T19:47:03.999Z,5.60
2023-04-24T19:49:33.319Z,5.60
2023-04-24T19:52:00.196Z,5.50
2023-04-24T19:54:27.312Z,5.50
2023-04-24T19:56:54.292Z,5.40
2023-04-24T19:59:22.023Z,5.40
2023-04-24T20:01:51.661Z,5.30
2023-04-24T20:04:23.588Z,5.30
2023-04-24T20:06:51.580Z,5.30
2023-04-24T20:09:18.352Z,5.20
2023-04-24T20:11:47.053Z,5.10
2023-04-24T20:14:14.641Z,5.10
2023-04-24T20:16:41.820Z,5.20
2023-04-24T20:19:08.858Z,5.10
2023-04-24T20:21:38.133Z,5.10
2023-04-24T20:24:08.709Z,5.10
2023-04-24T20:26:36.367Z,5.10
2023-04-24T20:29:04.830Z,5.10
2023-04-24T20:31:31.858Z,5.10
2023-04-24T20:33:59.056Z,5.20
2023-04-24T20:36:26.269Z,5.20
2023-04-24T20:38:54.599Z,5.30
2023-04-24T20:41:24.849Z,5.30
2023-04-24T20:43:52.322Z,5.30
2023-04-24T20:46:19.135Z,5.20
2023-04-24T20:48:49.310Z,5.30
2023-04-24T20:51:22.127Z,5.20
2023-04-24T20:53:49.801Z,5.20
2023-04-24T20:56:22.639Z,5.20
2023-04-24T20:58:49.752Z,5.30
2023-04-24T21:01:17.407Z,5.20
2023-04-24T21:03:44.731Z,5.20
2023-04-24T21:06:12.580Z,5.20
2023-04-24T21:08:44.981Z,5.10
2023-04-24T21:11:13.641Z,5.20
2023-04-24T21:13:43.340Z,5.30
2023-04-24T21:16:13.391Z,5.20
2023-04-24T21:18:45.180Z,5.20
2023-04-24T21:21:14.727Z,5.10
2023-04-24T21:23:41.635Z,5.20
2023-04-24T21:26:10.898Z,5.20
2023-04-24T21:28:38.401Z,5.20
2023-04-24T21:31:05.261Z,5.20
2023-04-24T21:33:32.103Z,5.10
2023-04-24T21:36:01.348Z,5.20
2023-04-24T21:38:31.176Z,5.20
2023-04-24T21:40:58.098Z,5.10
2023-04-24T21:43:30.802Z,5.20
2023-04-24T21:46:04.620Z,5.30
2023-04-24T21:48:33.586Z,5.30
2023-04-24T21:51:00.392Z,5.30
2023-04-24T21:53:29.776Z,5.30
2023-04-24T21:55:59.502Z,5.30
2023-04-24T21:58:26.992Z,5.30
2023-04-24T22:00:56.619Z,5.30
2023-04-24T22:03:23.478Z,5.30
2023-04-24T22:05:50.486Z,5.20
2023-04-24T22:08:17.568Z,5.20
2023-04-24T22:10:44.946Z,5.30
2023-04-24T22:13:14.407Z,5.20
2023-04-24T22:15:41.360Z,5.20
2023-04-24T22:18:11.980Z,5.10
2023-04-24T22:20:41.243Z,5.10
2023-04-24T22:23:08.061Z,5.00
2023-04-24T22:25:34.862Z,4.90
2023-04-24T22:28:04.756Z,4.90
2023-04-24T22:30:33.965Z,4.80
2023-04-24T22:33:01.395Z,4.80
2023-04-24T22:35:28.298Z,4.80
2023-04-24T22:38:01.192Z,4.70
2023-04-24T22:40:28.226Z,4.70
2023-04-24T22:42:58.703Z,4.70
2023-04-24T22:45:26.332Z,4.70
2023-04-24T22:47:54.815Z,4.80
2023-04-24T22:50:22.654Z,4.70
2023-04-24T22:52:49.677Z,4.60
2023-04-24T22:55:17.212Z,4.70
2023-04-24T22:57:44.857Z,4.70
2023-04-24T23:00:13.069Z,4.60
2023-04-24T23:02:41.439Z,4.70
2023-04-24T23:05:12.454Z,4.60
2023-04-24T23:07:40.216Z,4.60
2023-04-24T23:10:09.994Z,4.60
2023-04-24T23:12:36.851Z,4.60
2023-04-24T23:15:04.492Z,4.50
2023-04-24T23:17:34.206Z,4.40
2023-04-24T23:20:05.023Z,4.50
2023-04-24T23:22:32.353Z,4.50
2023-04-24T23:24:59.482Z,4.40
2023-04-24T23:27:26.597Z,4.50
2023-04-24T23:29:53.680Z,4.50
2023-04-24T23:32:20.868Z,4.40
2023-04-24T23:34:47.943Z,4.40
2023-04-24T23:37:15.520Z,4.40
2023-04-24T23:39:43.628Z,4.40
2023-04-24T23:42:10.992Z,4.40
2023-04-24T23:44:40.548Z,4.40
2023-04-24T23:47:09.972Z,4.40
2023-04-24T23:49:38.015Z,4.50
2023-04-24T23:52:05.691Z,4.40
2023-04-24T23:54:35.031Z,4.40
2023-04-24T23:57:02.477Z,4.30
2023-04-24T23:59:29.728Z,4.30
